Flight Track Log - Related Links

Times and Time Zones

All times are in EDT time to prevent confusion due to time zone crossing. See the N203BK flight status page for this flight to view local times or setup timezone preferences in your user account.


Time Position Orientation Groundspeed Altitude Reporting Facility
EDT Latitude Longitude Course Direction KTS MPH feet Rate Location/Type
Thu 06:34:43 PM 32.3839 -90.3425 278° West 179 206 8,000  Level Memphis Center
Thu 06:35:43 PM 32.3881 -90.4139 274° West 199 229 8,000  Level Memphis Center
Thu 06:36:00 PM 32.3413 -90.4352 280° West  Level FlightAware Approximate
Thu 06:36:43 PM 32.3942 -90.4903 275° West 210 242 8,000  Level Memphis Center
Thu 06:37:00 PM 32.3507 -90.4962 280° West  Level FlightAware Approximate
Thu 06:37:43 PM 32.4003 -90.5664 275° West 225 259 8,000  Level Memphis Center
Thu 06:38:00 PM 32.3601 -90.5572 280° West  Level FlightAware Approximate
Thu 06:38:42 PM 32.4064 -90.6428 275° West 236 272 8,000  Level Memphis Center
Thu 06:39:00 PM 32.3682 -90.6185 276° West  Level FlightAware Approximate
Thu 06:39:43 PM 32.4125 -90.7167 276° West 236 272 8,000  Level Memphis Center
Thu 06:40:43 PM 32.4164 -90.7906 274° West 236 272 8,000  Level Memphis Center
Thu 06:41:43 PM 32.4244 -90.8667 277° West 236 272 8,000  Level Memphis Center
Thu 06:42:43 PM 32.4306 -90.9406 276° West 236 272 8,000  Level Memphis Center
Thu 06:43:43 PM 32.4364 -91.0194 275° West 236 272 8,000  Level Memphis Center
Thu 06:44:43 PM 32.4422 -91.0858 276° West 236 272 8,000  Level Memphis Center
Thu 06:46:00 PM 32.4444 -91.1730 272° West  Level FlightAware Approximate
Thu 06:53:00 PM 32.4666 -91.6494 275° West  Level FlightAware Approximate
Thu 06:54:00 PM 32.4667 -91.7174 270° West  Level FlightAware Approximate
Thu 06:55:00 PM 32.4752 -91.7844 281° West  Level FlightAware Approximate
Thu 06:56:00 PM 32.4863 -91.8511 281° West  Level FlightAware Approximate
Thu 06:57:00 PM 32.4974 -91.9178 281° West  Level FlightAware Approximate
Thu 06:58:00 PM 32.5000 -91.9856 270° West  Level FlightAware Approximate
Thu 06:59:00 PM 32.5000 -92.0333 270° West  Level FlightAware Approximate

Login

Don't have an account? Register now (free) for customized features, flight alerts, and more!